Time;durP1;ratioP1;P1;durP2;ratioP2;P2;SDS_P1;SDS_P2;PMS_P1;PMS_P2;Temp;Humidity;BMP_temperature;BMP_pressure;BME280_temperature;BME280_humidity;BME280_pressure;Samples;Min_cycle;Max_cycle;Signal;HPM_P1;HPM_P2
2022/04/01 00:00:11;;;;;;;16.60;12.00;;;10.70;99.90;;;;;;4949138;28;20039;-76
2022/04/01 00:02:38;;;;;;;16.27;12.32;;;10.70;99.90;;;;;;4953142;28;20031;-76
2022/04/01 00:05:06;;;;;;;16.63;12.45;;;10.60;99.90;;;;;;4950926;28;20409;-76
2022/04/01 00:07:32;;;;;;;20.08;13.07;;;10.60;99.90;;;;;;4951876;28;20505;-76
2022/04/01 00:09:58;;;;;;;17.02;12.93;;;10.60;99.90;;;;;;4950032;28;20045;-76
2022/04/01 00:12:23;;;;;;;18.23;13.20;;;10.70;99.90;;;;;;4949952;28;20035;-76
2022/04/01 00:14:49;;;;;;;21.33;14.52;;;10.70;99.90;;;;;;4951140;28;20027;-76
2022/04/01 00:17:15;;;;;;;23.77;15.48;;;10.80;99.90;;;;;;4952579;28;20059;-75
2022/04/01 00:19:41;;;;;;;32.15;18.85;;;10.80;99.90;;;;;;4950761;28;20078;-76
2022/04/01 00:22:07;;;;;;;28.02;18.35;;;10.70;99.90;;;;;;4951410;28;20082;-75
2022/04/01 00:24:33;;;;;;;24.05;16.77;;;10.60;99.90;;;;;;4949676;28;20114;-76
2022/04/01 00:27:00;;;;;;;29.02;18.90;;;10.50;99.90;;;;;;4948677;28;20402;-76
2022/04/01 00:29:26;;;;;;;22.95;16.70;;;10.50;99.90;;;;;;4953160;28;20027;-75
2022/04/01 00:31:59;;;;;;;31.45;18.27;;;10.40;99.90;;;;;;4950102;28;20032;-76
2022/04/01 00:34:26;;;;;;;28.70;18.45;;;10.40;99.90;;;;;;4953994;28;20035;-76
2022/04/01 00:36:52;;;;;;;33.30;19.00;;;10.30;99.90;;;;;;4953143;28;20039;-76
2022/04/01 00:39:20;;;;;;;27.80;17.92;;;10.40;99.90;;;;;;4951712;28;20035;-76
2022/04/01 00:41:47;;;;;;;29.27;19.38;;;10.50;99.90;;;;;;4952738;28;20047;-75
2022/04/01 00:44:17;;;;;;;28.23;18.92;;;10.20;99.90;;;;;;4949582;28;20034;-76
2022/04/01 00:46:45;;;;;;;31.25;18.67;;;10.00;99.90;;;;;;4947319;28;20352;-75
2022/04/01 00:49:11;;;;;;;29.40;19.88;;;10.00;99.90;;;;;;4949587;28;20031;-76
2022/04/01 00:51:37;;;;;;;25.20;16.85;;;10.00;99.90;;;;;;4952396;28;20394;-76
2022/04/01 00:54:05;;;;;;;24.40;17.80;;;10.00;99.90;;;;;;4949621;28;20046;-76
2022/04/01 00:56:33;;;;;;;31.17;19.70;;;9.90;99.90;;;;;;4952188;28;20502;-76
2022/04/01 00:58:59;;;;;;;23.10;16.83;;;9.90;99.90;;;;;;4948892;28;20074;-76
2022/04/01 01:01:26;;;;;;;27.85;19.08;;;9.90;99.90;;;;;;4943757;28;20031;-75
2022/04/01 01:03:52;;;;;;;25.40;18.13;;;10.00;99.90;;;;;;4949627;28;20035;-76
2022/04/01 01:06:20;;;;;;;22.05;15.73;;;10.00;99.90;;;;;;4948624;28;20094;-76
2022/04/01 01:08:47;;;;;;;25.88;15.98;;;10.00;99.90;;;;;;4950451;28;20090;-77
2022/04/01 01:11:12;;;;;;;22.65;16.17;;;9.90;99.90;;;;;;4944971;28;20036;-77
2022/04/01 01:13:39;;;;;;;26.52;18.20;;;9.80;99.90;;;;;;4948550;28;20117;-76
2022/04/01 01:16:07;;;;;;;25.02;17.58;;;9.80;99.90;;;;;;4950424;28;20475;-76
2022/04/01 01:18:33;;;;;;;25.67;16.80;;;9.80;99.90;;;;;;4952491;28;20038;-76
2022/04/01 01:20:59;;;;;;;25.23;17.95;;;9.80;99.90;;;;;;4951530;28;20081;-76
2022/04/01 01:23:28;;;;;;;23.02;15.68;;;9.80;99.90;;;;;;4951117;28;20501;-76
2022/04/01 01:25:54;;;;;;;23.55;15.10;;;9.80;99.90;;;;;;4947994;28;20038;-76
2022/04/01 01:28:21;;;;;;;24.17;17.15;;;9.80;99.90;;;;;;4951342;28;20045;-76
2022/04/01 01:30:47;;;;;;;28.85;17.98;;;9.80;99.90;;;;;;4949745;28;20137;-76
2022/04/01 01:33:14;;;;;;;22.25;16.08;;;9.90;99.90;;;;;;4948827;28;20517;-76
2022/04/01 01:35:40;;;;;;;26.00;18.60;;;10.00;99.90;;;;;;4951324;28;20070;-76
2022/04/01 01:38:08;;;;;;;31.77;19.17;;;10.00;99.90;;;;;;4949871;28;20042;-76
2022/04/01 01:40:34;;;;;;;30.77;20.67;;;9.90;99.90;;;;;;4949245;28;20031;-76
2022/04/01 01:43:00;;;;;;;33.00;21.08;;;9.80;99.90;;;;;;4952478;28;20166;-76
2022/04/01 01:45:29;;;;;;;28.50;19.27;;;9.60;99.90;;;;;;4949152;28;20551;-76
2022/04/01 01:47:58;;;;;;;29.20;18.75;;;9.70;99.90;;;;;;4949321;28;20031;-76
2022/04/01 01:55:52;;;;;;;33.00;21.73;;;9.80;99.90;;;;;;4946972;28;20458;-76
2022/04/01 01:58:18;;;;;;;44.40;24.38;;;9.80;99.90;;;;;;4942819;28;20031;-76
2022/04/01 02:00:45;;;;;;;40.58;23.95;;;9.90;99.90;;;;;;4937096;28;20066;-76
2022/04/01 02:03:12;;;;;;;40.45;23.98;;;9.90;99.90;;;;;;4938938;28;20070;-76
2022/04/01 02:05:37;;;;;;;34.17;20.85;;;9.90;99.90;;;;;;4934262;28;21512;-76
2022/04/01 02:08:05;;;;;;;38.58;23.08;;;9.90;99.90;;;;;;4944569;28;20048;-76
2022/04/01 02:10:32;;;;;;;30.20;18.70;;;9.80;99.90;;;;;;4942970;28;20519;-75
2022/04/01 02:12:58;;;;;;;24.83;16.90;;;9.90;99.90;;;;;;4947057;28;20027;-76
2022/04/01 02:15:24;;;;;;;20.75;14.07;;;10.00;99.90;;;;;;4945591;28;20035;-76
2022/04/01 02:17:50;;;;;;;20.33;13.38;;;9.90;99.90;;;;;;4944855;28;20039;-76
2022/04/01 02:20:16;;;;;;;18.45;13.25;;;9.70;99.90;;;;;;4944611;28;20118;-76
2022/04/01 02:22:43;;;;;;;17.63;13.07;;;9.70;99.90;;;;;;4948673;28;20505;-75
2022/04/01 02:25:11;;;;;;;17.25;13.43;;;9.70;99.90;;;;;;4948724;28;20130;-76
2022/04/01 02:27:37;;;;;;;18.58;13.60;;;9.70;99.90;;;;;;4948240;28;20081;-76
2022/04/01 02:30:10;;;;;;;20.08;14.63;;;9.80;99.90;;;;;;4948800;28;20090;-76
2022/04/01 02:32:41;;;;;;;25.15;16.63;;;9.90;99.90;;;;;;4948269;28;20047;-76
2022/04/01 02:35:10;;;;;;;42.05;23.17;;;9.90;99.90;;;;;;4949574;28;20422;-76
2022/04/01 02:37:39;;;;;;;37.10;22.02;;;9.90;99.90;;;;;;4949101;28;20035;-75
2022/04/01 02:40:06;;;;;;;37.03;23.52;;;9.90;99.90;;;;;;4946826;28;20046;-76
2022/04/01 02:42:32;;;;;;;23.08;15.73;;;9.80;99.90;;;;;;4951086;28;20059;-75
2022/04/01 02:44:57;;;;;;;18.27;12.60;;;9.70;99.90;;;;;;4945263;28;20027;-77
2022/04/01 02:47:24;;;;;;;19.67;12.35;;;9.50;99.90;;;;;;4947512;28;20050;-76
2022/04/01 02:49:50;;;;;;;15.60;10.98;;;9.50;99.90;;;;;;4948301;28;20035;-76
2022/04/01 02:52:16;;;;;;;20.02;12.60;;;9.50;99.90;;;;;;4950166;28;20043;-76
2022/04/01 02:54:43;;;;;;;17.02;12.02;;;9.50;99.90;;;;;;4949429;28;20043;-76
2022/04/01 02:57:11;;;;;;;18.10;10.95;;;9.50;99.90;;;;;;4947419;28;20522;-76
2022/04/01 02:59:37;;;;;;;24.95;11.88;;;9.50;99.90;;;;;;4946048;28;20528;-77
2022/04/01 03:02:03;;;;;;;19.10;12.60;;;9.50;99.90;;;;;;4949097;28;20023;-76
2022/04/01 03:04:29;;;;;;;25.60;14.75;;;9.50;99.90;;;;;;4940607;28;20809;-77
2022/04/01 03:06:55;;;;;;;31.58;17.88;;;9.60;99.90;;;;;;4935683;28;20134;-76
2022/04/01 03:09:20;;;;;;;23.52;14.80;;;9.60;99.90;;;;;;4941833;28;20039;-76
2022/04/01 03:11:46;;;;;;;26.58;15.60;;;9.70;99.90;;;;;;4941503;28;20142;-76
2022/04/01 03:14:12;;;;;;;35.53;20.90;;;9.70;99.90;;;;;;4937990;28;20385;-75
2022/04/01 03:16:41;;;;;;;40.40;23.65;;;9.70;99.90;;;;;;4946860;28;20404;-75
2022/04/01 03:19:08;;;;;;;41.03;26.30;;;9.60;99.90;;;;;;4946286;28;20039;-75
2022/04/01 03:21:41;;;;;;;47.80;29.67;;;9.50;99.90;;;;;;4943904;28;20047;-75
2022/04/01 03:24:11;;;;;;;53.28;31.20;;;9.50;99.90;;;;;;4946193;28;20031;-75
2022/04/01 03:26:40;;;;;;;47.33;30.77;;;9.50;99.90;;;;;;4942478;28;20043;-75
2022/04/01 03:29:07;;;;;;;48.60;29.63;;;9.50;99.90;;;;;;4937291;28;20553;-75
2022/04/01 03:31:34;;;;;;;52.28;31.35;;;9.60;99.90;;;;;;4930267;28;20054;-75
2022/04/01 03:34:00;;;;;;;51.15;29.63;;;9.50;99.90;;;;;;4946332;28;20145;-75
2022/04/01 03:36:25;;;;;;;52.60;31.30;;;9.50;99.90;;;;;;4943182;28;20632;-75
2022/04/01 03:38:51;;;;;;;46.90;29.55;;;9.60;99.90;;;;;;4944694;28;20110;-75
2022/04/01 03:41:17;;;;;;;38.67;25.27;;;9.60;99.90;;;;;;4942589;28;20166;-75
2022/04/01 03:43:43;;;;;;;36.70;23.10;;;9.50;99.90;;;;;;4944868;28;20437;-75
2022/04/01 03:46:11;;;;;;;45.15;24.63;;;9.40;99.90;;;;;;4943171;28;20046;-75
2022/04/01 03:48:55;;;;;;;47.00;22.50;;;9.50;99.90;;;;;;4945718;28;20035;-75
2022/04/01 03:51:25;;;;;;;32.60;20.90;;;9.60;99.90;;;;;;4941783;28;20030;-75
2022/04/01 03:54:00;;;;;;;29.63;19.50;;;9.50;99.90;;;;;;4948529;28;20027;-75
2022/04/01 03:56:35;;;;;;;32.60;18.95;;;9.50;99.90;;;;;;4945082;28;20426;-76
2022/04/01 03:59:06;;;;;;;33.97;20.25;;;9.30;99.90;;;;;;4933154;28;20036;-76
2022/04/01 04:01:34;;;;;;;33.90;19.83;;;9.50;99.90;;;;;;4932474;28;20130;-76
2022/04/01 04:04:01;;;;;;;30.52;19.02;;;9.40;99.90;;;;;;4944390;28;20115;-75
2022/04/01 04:06:27;;;;;;;30.88;18.15;;;9.30;99.90;;;;;;4944152;28;20109;-75
2022/04/01 04:08:57;;;;;;;26.08;16.25;;;9.40;99.90;;;;;;4943068;28;20477;-75
2022/04/01 04:11:25;;;;;;;25.40;16.30;;;9.30;99.90;;;;;;4939978;28;20041;-74
2022/04/01 04:13:53;;;;;;;19.77;12.82;;;9.20;99.90;;;;;;4945663;28;20635;-75
2022/04/01 04:16:19;;;;;;;24.67;14.63;;;9.20;99.90;;;;;;4945012;28;20074;-75
2022/04/01 04:18:48;;;;;;;21.45;14.18;;;9.10;99.90;;;;;;4945960;28;20142;-74
2022/04/01 04:21:37;;;;;;;22.63;14.43;;;9.20;99.90;;;;;;4940689;28;20033;-74
2022/04/01 04:24:05;;;;;;;24.40;14.60;;;9.10;99.90;;;;;;4946946;28;20089;-75
2022/04/01 04:26:35;;;;;;;27.75;15.10;;;9.30;99.90;;;;;;4945436;28;20118;-75
2022/04/01 04:29:13;;;;;;;24.38;14.40;;;9.30;99.90;;;;;;4945960;28;20074;-74
2022/04/01 04:31:47;;;;;;;27.63;15.77;;;9.20;99.90;;;;;;4944224;28;20043;-75
2022/04/01 04:34:17;;;;;;;27.73;14.73;;;9.20;99.90;;;;;;4944224;28;20153;-75
2022/04/01 04:36:49;;;;;;;25.98;14.52;;;9.20;99.90;;;;;;4941532;28;20102;-74
2022/04/01 04:39:35;;;;;;;26.73;15.75;;;9.20;99.90;;;;;;4941453;28;20450;-75
2022/04/01 04:42:03;;;;;;;23.83;15.10;;;9.10;99.90;;;;;;4938586;28;20047;-75
2022/04/01 04:44:30;;;;;;;20.92;13.68;;;9.10;99.90;;;;;;4943863;28;20035;-75
2022/04/01 04:47:07;;;;;;;26.20;13.85;;;9.00;99.90;;;;;;4944770;28;20051;-75
2022/04/01 04:49:32;;;;;;;22.05;13.05;;;9.00;99.90;;;;;;4940883;28;20034;-75
2022/04/01 04:51:59;;;;;;;21.38;13.02;;;9.10;99.90;;;;;;4940034;28;20047;-75
2022/04/01 04:54:25;;;;;;;20.75;13.55;;;9.00;99.90;;;;;;4944948;28;20122;-74
2022/04/01 04:56:53;;;;;;;17.75;11.32;;;9.00;99.90;;;;;;4941505;28;20039;-74
2022/04/01 04:59:22;;;;;;;17.52;11.35;;;9.00;99.90;;;;;;4945046;28;20500;-74
2022/04/01 05:01:56;;;;;;;14.23;9.23;;;8.90;99.90;;;;;;4940495;28;20039;-75
2022/04/01 05:04:40;;;;;;;11.77;7.70;;;8.80;99.90;;;;;;4947355;28;20035;-75
2022/04/01 05:07:24;;;;;;;12.98;7.00;;;8.80;99.90;;;;;;4944098;28;20127;-75
2022/04/01 05:10:02;;;;;;;12.90;8.23;;;8.80;99.90;;;;;;4936696;28;20039;-75
2022/04/01 05:12:49;;;;;;;15.38;8.45;;;8.80;99.90;;;;;;4942072;28;20039;-75
2022/04/01 05:15:19;;;;;;;13.50;7.30;;;8.80;99.90;;;;;;4946399;28;20035;-75
2022/04/01 05:17:59;;;;;;;12.00;7.28;;;8.90;99.90;;;;;;4931506;28;20043;-75
2022/04/01 05:20:28;;;;;;;14.98;8.90;;;8.90;99.90;;;;;;4934900;28;20687;-75
2022/04/01 05:22:59;;;;;;;13.50;7.90;;;8.80;99.90;;;;;;4939507;28;20035;-75
2022/04/01 05:25:30;;;;;;;12.40;6.95;;;8.60;99.90;;;;;;4934911;28;20028;-75
2022/04/01 05:28:02;;;;;;;10.43;5.82;;;8.50;99.90;;;;;;4942633;28;20050;-74
2022/04/01 05:30:37;;;;;;;10.43;6.60;;;8.50;99.90;;;;;;4943674;28;20039;-74
2022/04/01 05:33:16;;;;;;;8.23;4.88;;;8.50;99.90;;;;;;4949940;28;20027;-75
2022/04/01 05:35:51;;;;;;;9.55;5.78;;;8.70;99.90;;;;;;4944748;28;20039;-76
2022/04/01 05:38:21;;;;;;;11.20;6.68;;;8.60;99.90;;;;;;4944922;28;20409;-75
2022/04/01 05:40:50;;;;;;;10.82;6.50;;;8.60;99.90;;;;;;4937697;28;20117;-75
2022/04/01 05:43:16;;;;;;;10.27;6.25;;;8.70;99.90;;;;;;4945904;28;20031;-74
2022/04/01 05:45:43;;;;;;;12.13;6.80;;;8.50;99.90;;;;;;4946908;28;20602;-75
2022/04/01 05:48:12;;;;;;;11.70;6.82;;;8.50;99.90;;;;;;4947118;28;20047;-74
2022/04/01 05:50:39;;;;;;;12.93;6.88;;;8.50;99.90;;;;;;4945075;28;20101;-74
2022/04/01 05:53:06;;;;;;;13.65;8.63;;;8.50;99.90;;;;;;4944519;28;20070;-75
2022/04/01 05:55:33;;;;;;;11.65;5.65;;;8.50;99.90;;;;;;4936206;28;20118;-76
2022/04/01 05:58:04;;;;;;;9.90;5.82;;;8.60;99.90;;;;;;4925793;28;20043;-77
2022/04/01 06:00:41;;;;;;;8.38;5.38;;;8.50;99.90;;;;;;4940084;28;20081;-77
2022/04/01 06:03:31;;;;;;;7.68;3.97;;;8.30;99.90;;;;;;4941074;28;20048;-76
2022/04/01 06:06:12;;;;;;;8.23;4.95;;;8.10;99.90;;;;;;4951439;28;20134;-75
2022/04/01 06:09:02;;;;;;;7.43;4.43;;;8.20;99.90;;;;;;4943705;28;20521;-75
2022/04/01 06:12:18;;;;;;;8.75;5.07;;;8.20;99.90;;;;;;4941277;28;20039;-75
2022/04/01 06:15:21;;;;;;;11.68;5.88;;;8.40;99.90;;;;;;4948597;28;20059;-75
2022/04/01 06:18:14;;;;;;;9.63;5.32;;;8.50;99.90;;;;;;4943493;28;20520;-74
2022/04/01 06:20:41;;;;;;;10.32;6.07;;;8.50;99.90;;;;;;4941364;28;20094;-74
2022/04/01 06:23:19;;;;;;;8.05;5.55;;;8.50;99.90;;;;;;4943285;28;20115;-74
2022/04/01 06:25:51;;;;;;;12.13;6.65;;;8.50;99.90;;;;;;4944234;28;20035;-74
2022/04/01 06:28:24;;;;;;;10.02;6.35;;;8.60;99.90;;;;;;4942825;28;20489;-74
2022/04/01 06:30:52;;;;;;;11.30;5.55;;;8.40;99.90;;;;;;4941966;28;20039;-74
2022/04/01 06:33:18;;;;;;;8.88;5.32;;;8.30;99.90;;;;;;4942381;28;20084;-74
2022/04/01 06:35:56;;;;;;;11.25;5.30;;;8.30;99.90;;;;;;4937462;28;20467;-73
2022/04/01 06:38:40;;;;;;;7.93;3.53;;;8.30;99.90;;;;;;4943025;28;20063;-74
2022/04/01 06:41:17;;;;;;;6.10;3.07;;;8.20;99.90;;;;;;4940084;28;20686;-74
2022/04/01 06:43:43;;;;;;;6.53;3.00;;;8.10;99.90;;;;;;4941553;28;20512;-74
2022/04/01 06:46:10;;;;;;;6.07;3.05;;;8.20;99.90;;;;;;4943460;28;20035;-74
2022/04/01 06:48:36;;;;;;;5.70;3.10;;;8.20;99.90;;;;;;4939659;28;20100;-74
2022/04/01 06:51:02;;;;;;;8.05;3.42;;;8.30;99.90;;;;;;4934938;28;20030;-74
2022/04/01 06:53:28;;;;;;;7.40;3.75;;;8.40;99.90;;;;;;4943197;28;20434;-73
2022/04/01 06:55:53;;;;;;;6.28;3.67;;;8.40;99.90;;;;;;4942346;28;20375;-75
2022/04/01 06:58:20;;;;;;;7.43;3.70;;;8.50;99.90;;;;;;4942358;28;20034;-74
2022/04/01 07:00:46;;;;;;;6.45;3.92;;;8.50;99.90;;;;;;4944064;28;20093;-74
2022/04/01 07:03:12;;;;;;;6.07;3.40;;;8.60;99.90;;;;;;4943323;28;20121;-74
2022/04/01 07:05:39;;;;;;;3.35;1.65;;;8.70;99.90;;;;;;4942537;28;20035;-74
2022/04/01 07:08:05;;;;;;;3.55;2.03;;;8.60;99.90;;;;;;4945333;28;20035;-73
2022/04/01 07:10:32;;;;;;;2.63;1.23;;;8.60;99.90;;;;;;4947356;28;20031;-74
2022/04/01 07:12:58;;;;;;;2.92;1.10;;;8.60;99.90;;;;;;4947227;28;20145;-74
2022/04/01 07:15:24;;;;;;;3.22;1.42;;;8.70;99.90;;;;;;4935087;28;20481;-73
2022/04/01 07:17:51;;;;;;;3.45;1.15;;;8.80;99.90;;;;;;4945225;28;20162;-74
2022/04/01 07:20:16;;;;;;;2.60;1.15;;;8.80;99.90;;;;;;4934240;28;20592;-74
2022/04/01 07:22:42;;;;;;;2.83;1.10;;;8.80;99.90;;;;;;4936283;28;20035;-74
2022/04/01 07:25:12;;;;;;;2.17;1.08;;;8.80;99.90;;;;;;4930645;28;20039;-74
2022/04/01 07:27:39;;;;;;;2.72;1.00;;;8.70;99.90;;;;;;4943211;28;20136;-73
2022/04/01 07:30:08;;;;;;;2.42;1.08;;;8.70;99.90;;;;;;4945807;28;20106;-73
2022/04/01 07:32:35;;;;;;;2.80;1.20;;;8.60;99.90;;;;;;4948008;28;20027;-73
2022/04/01 07:35:08;;;;;;;2.85;1.30;;;8.70;99.90;;;;;;4945064;28;20077;-73
2022/04/01 07:37:34;;;;;;;3.22;1.33;;;8.60;99.90;;;;;;4944627;28;20500;-73
2022/04/01 07:40:01;;;;;;;8.43;1.23;;;8.60;99.90;;;;;;4945142;28;20031;-73
2022/04/01 07:42:28;;;;;;;3.08;1.25;;;8.80;99.90;;;;;;4944843;28;20154;-74
2022/04/01 07:44:55;;;;;;;3.00;1.33;;;8.90;99.90;;;;;;4944694;28;20102;-75
2022/04/01 07:47:22;;;;;;;3.42;1.42;;;9.00;99.90;;;;;;4947027;28;20127;-74
2022/04/01 07:49:51;;;;;;;3.75;1.83;;;9.00;99.90;;;;;;4945002;28;20039;-73
2022/04/01 07:52:20;;;;;;;11.07;3.85;;;9.00;99.90;;;;;;4945954;28;20062;-74
2022/04/01 07:54:46;;;;;;;7.90;3.85;;;9.00;99.90;;;;;;4945331;28;20031;-73
2022/04/01 07:57:13;;;;;;;7.43;2.45;;;9.00;99.90;;;;;;4946193;28;20046;-74
2022/04/01 07:59:39;;;;;;;4.65;2.38;;;9.00;99.90;;;;;;4946708;28;20031;-74
2022/04/01 08:02:05;;;;;;;5.72;2.10;;;8.90;99.90;;;;;;4945798;28;20515;-73
2022/04/01 08:04:30;;;;;;;5.47;3.13;;;9.00;99.90;;;;;;4945923;28;20038;-74
2022/04/01 08:06:57;;;;;;;7.10;3.35;;;8.90;99.90;;;;;;4943102;28;20055;-73
2022/04/01 08:09:26;;;;;;;8.05;3.25;;;8.80;99.90;;;;;;4945747;28;20031;-74
2022/04/01 08:11:55;;;;;;;5.28;3.15;;;8.90;99.90;;;;;;4942457;28;20031;-74
2022/04/01 08:14:21;;;;;;;4.90;3.13;;;9.00;99.90;;;;;;4946020;28;20572;-74
2022/04/01 08:16:48;;;;;;;6.97;3.58;;;9.00;99.90;;;;;;4946362;28;20031;-73
2022/04/01 08:19:14;;;;;;;7.70;4.20;;;9.20;99.90;;;;;;4942147;28;20082;-73
2022/04/01 08:21:41;;;;;;;9.80;4.47;;;9.20;99.90;;;;;;4942993;28;20031;-73
2022/04/01 08:24:09;;;;;;;9.20;4.40;;;9.10;99.90;;;;;;4944813;28;20031;-74
2022/04/01 08:26:35;;;;;;;7.13;4.43;;;9.10;99.90;;;;;;4943561;28;20486;-74
2022/04/01 08:29:02;;;;;;;8.80;4.30;;;9.00;99.90;;;;;;4944903;28;20129;-73
2022/04/01 08:31:30;;;;;;;7.78;4.78;;;8.90;99.90;;;;;;4938995;28;20388;-73
2022/04/01 08:33:56;;;;;;;10.38;5.53;;;9.00;99.90;;;;;;4939804;28;20045;-73
2022/04/01 08:36:22;;;;;;;9.93;4.53;;;8.90;99.90;;;;;;4954433;28;20026;-74
2022/04/01 08:38:48;;;;;;;9.70;4.68;;;8.80;99.90;;;;;;4957361;28;20030;-74
2022/04/01 08:41:19;;;;;;;7.47;4.43;;;8.80;99.90;;;;;;4947779;28;20039;-73
2022/04/01 08:43:46;;;;;;;8.85;4.07;;;8.80;99.90;;;;;;4942574;28;20054;-73
2022/04/01 08:46:12;;;;;;;7.97;4.25;;;8.70;99.90;;;;;;4945128;28;20102;-74
2022/04/01 08:48:38;;;;;;;6.18;3.83;;;8.70;99.90;;;;;;4945156;28;20068;-73
2022/04/01 08:51:04;;;;;;;7.22;3.92;;;8.70;99.90;;;;;;4943099;28;20069;-74
2022/04/01 08:53:37;;;;;;;7.90;4.68;;;8.70;99.90;;;;;;4943186;28;20027;-73
2022/04/01 08:56:04;;;;;;;6.05;3.85;;;8.70;99.90;;;;;;4945875;28;20106;-74
2022/04/01 08:58:30;;;;;;;9.70;3.85;;;8.60;99.90;;;;;;4945015;28;20035;-73
2022/04/01 09:00:58;;;;;;;8.23;3.53;;;8.60;99.90;;;;;;4943553;28;20035;-73
2022/04/01 09:03:24;;;;;;;9.18;4.45;;;8.70;99.90;;;;;;4944723;28;20374;-73
2022/04/01 09:05:55;;;;;;;8.55;4.22;;;8.80;99.90;;;;;;4950148;28;20086;-74
2022/04/01 09:08:40;;;;;;;5.55;3.78;;;8.90;99.90;;;;;;4949440;28;20050;-74
2022/04/01 09:11:17;;;;;;;6.35;4.00;;;9.00;99.90;;;;;;4949852;28;21122;-74
2022/04/01 09:13:42;;;;;;;5.78;3.60;;;8.90;99.90;;;;;;4950741;28;20478;-74
2022/04/01 09:16:09;;;;;;;6.88;2.90;;;8.90;99.90;;;;;;4952793;28;20100;-74
2022/04/01 09:18:44;;;;;;;6.18;3.05;;;8.90;99.90;;;;;;4948111;28;20580;-74
2022/04/01 09:21:12;;;;;;;7.15;3.33;;;8.90;99.90;;;;;;4951227;28;20023;-75
2022/04/01 09:23:38;;;;;;;8.32;3.75;;;8.80;99.90;;;;;;4944205;28;20617;-74
2022/04/01 09:26:05;;;;;;;10.10;3.80;;;8.80;99.90;;;;;;4944495;28;20027;-75
2022/04/01 09:28:38;;;;;;;5.70;3.40;;;8.80;99.90;;;;;;4950086;28;20111;-75
2022/04/01 09:31:12;;;;;;;7.18;3.83;;;9.00;99.90;;;;;;4952319;28;20027;-75
2022/04/01 09:33:45;;;;;;;6.05;3.38;;;8.80;99.90;;;;;;4942088;28;20031;-75
2022/04/01 09:36:13;;;;;;;9.82;3.58;;;8.90;99.90;;;;;;4944648;28;20027;-76
2022/04/01 09:38:50;;;;;;;8.52;3.00;;;8.80;99.90;;;;;;4942522;28;20027;-75
2022/04/01 09:41:19;;;;;;;9.30;3.58;;;8.80;99.90;;;;;;4944733;28;20066;-75
2022/04/01 09:43:44;;;;;;;6.40;3.28;;;8.70;99.90;;;;;;4942867;28;20035;-75
2022/04/01 09:46:25;;;;;;;5.45;3.10;;;8.70;99.90;;;;;;4942145;28;20358;-75
2022/04/01 09:48:58;;;;;;;5.15;3.58;;;8.80;99.90;;;;;;4943164;28;20062;-75
2022/04/01 09:51:28;;;;;;;8.85;3.67;;;8.90;99.90;;;;;;4940945;28;20705;-76
2022/04/01 09:53:54;;;;;;;7.70;3.80;;;9.10;99.90;;;;;;4942831;28;20043;-75
2022/04/01 09:56:44;;;;;;;5.57;3.17;;;9.00;99.90;;;;;;4943065;28;20520;-75
2022/04/01 09:59:12;;;;;;;7.10;4.13;;;8.90;99.90;;;;;;4940012;28;20046;-76
2022/04/01 10:01:39;;;;;;;5.85;3.35;;;8.90;99.90;;;;;;4937785;28;20027;-75
2022/04/01 10:04:05;;;;;;;5.93;2.90;;;8.90;99.90;;;;;;4955560;28;20043;-75
2022/04/01 10:06:32;;;;;;;3.28;1.73;;;8.80;99.90;;;;;;4944273;28;20061;-76
2022/04/01 10:09:04;;;;;;;2.58;1.30;;;8.80;99.90;;;;;;4948807;28;20634;-77
2022/04/01 10:11:31;;;;;;;1.88;0.95;;;8.60;99.90;;;;;;4944981;28;20098;-77
2022/04/01 10:14:06;;;;;;;2.80;1.27;;;8.70;99.90;;;;;;4951537;28;20027;-77
2022/04/01 10:16:35;;;;;;;1.88;0.82;;;8.70;99.90;;;;;;4940190;28;20031;-76
2022/04/01 10:19:06;;;;;;;1.70;1.00;;;8.70;99.90;;;;;;4941469;28;20063;-77
2022/04/01 10:21:34;;;;;;;1.85;0.55;;;8.70;99.90;;;;;;4943639;28;20032;-77
2022/04/01 10:24:14;;;;;;;1.65;0.50;;;8.70;99.90;;;;;;4942293;28;20027;-75
2022/04/01 10:26:59;;;;;;;1.48;0.40;;;8.80;99.90;;;;;;4941313;28;20098;-77
2022/04/01 10:29:26;;;;;;;1.00;0.47;;;8.70;99.90;;;;;;4937145;28;20110;-77
2022/04/01 10:31:53;;;;;;;1.17;0.50;;;8.80;99.90;;;;;;4943476;28;20154;-74
2022/04/01 10:34:21;;;;;;;2.45;0.63;;;8.80;99.90;;;;;;4940803;28;20533;-77
2022/04/01 10:36:55;;;;;;;4.15;2.13;;;8.70;99.90;;;;;;4939356;28;20541;-76
2022/04/01 10:39:21;;;;;;;3.67;1.45;;;8.90;99.90;;;;;;4944593;28;20062;-77
2022/04/01 10:42:11;;;;;;;11.45;1.40;;;8.90;99.90;;;;;;4943839;28;20074;-76
2022/04/01 10:44:55;;;;;;;5.53;1.80;;;9.00;99.90;;;;;;4942310;28;20035;-76
2022/04/01 10:47:23;;;;;;;7.15;1.58;;;9.10;99.90;;;;;;4939292;28;20074;-76
2022/04/01 10:52:34;;;;;;;2.22;0.95;;;9.10;99.90;;;;;;4931721;28;20050;-77
2022/04/01 10:55:03;;;;;;;2.80;1.00;;;9.10;99.90;;;;;;4946316;28;20043;-76
2022/04/01 10:57:44;;;;;;;2.75;1.30;;;9.20;99.90;;;;;;4948947;28;20454;-76
2022/04/01 11:00:14;;;;;;;3.17;1.60;;;9.10;99.90;;;;;;4946993;28;20753;-76
2022/04/01 11:02:45;;;;;;;4.40;2.17;;;9.20;99.90;;;;;;4948949;28;20403;-76
2022/04/01 11:05:26;;;;;;;3.90;1.80;;;9.10;99.90;;;;;;4948041;28;20138;-75
2022/04/01 11:08:24;;;;;;;4.28;2.15;;;8.80;99.90;;;;;;4949797;28;20047;-76
2022/04/01 11:11:07;;;;;;;4.70;1.60;;;8.70;99.90;;;;;;4949006;29;20050;-76
2022/04/01 11:13:33;;;;;;;2.63;1.50;;;8.90;99.90;;;;;;4951712;28;20027;-76
2022/04/01 11:16:20;;;;;;;3.33;1.73;;;9.00;99.90;;;;;;4954189;28;20529;-76
2022/04/01 11:19:15;;;;;;;2.75;1.42;;;8.90;99.90;;;;;;4950413;28;20055;-75
2022/04/01 11:21:42;;;;;;;7.32;3.25;;;9.00;99.90;;;;;;4950279;28;20035;-75
2022/04/01 11:24:33;;;;;;;6.45;3.40;;;8.90;99.90;;;;;;4947859;28;20032;-76
2022/04/01 11:27:23;;;;;;;5.97;3.45;;;8.80;99.90;;;;;;4949789;28;20074;-76
2022/04/01 11:30:07;;;;;;;10.02;4.13;;;8.90;99.90;;;;;;4950542;28;20110;-76
2022/04/01 11:32:37;;;;;;;9.73;3.78;;;8.80;99.90;;;;;;4950559;28;20058;-76
2022/04/01 11:35:04;;;;;;;7.18;3.75;;;8.80;99.90;;;;;;4948068;28;20122;-77
2022/04/01 11:37:36;;;;;;;7.55;3.75;;;8.80;99.90;;;;;;4950268;28;20098;-78
2022/04/01 11:40:08;;;;;;;7.28;3.80;;;8.90;99.90;;;;;;4945078;28;20533;-77
2022/04/01 11:42:34;;;;;;;9.38;4.20;;;8.80;99.90;;;;;;4946809;28;20051;-77
2022/04/01 11:45:01;;;;;;;8.38;4.30;;;8.90;99.90;;;;;;4943573;28;20086;-78
2022/04/01 11:47:35;;;;;;;6.55;3.78;;;8.80;99.90;;;;;;4942367;28;20043;-77
2022/04/01 11:50:11;;;;;;;30.75;14.63;;;8.80;99.90;;;;;;4945561;28;20127;-77
2022/04/01 11:52:39;;;;;;;28.27;14.52;;;8.80;99.90;;;;;;4946996;28;20342;-76
2022/04/01 11:55:17;;;;;;;84.35;39.45;;;8.90;99.90;;;;;;4942837;28;20041;-78
2022/04/01 11:57:44;;;;;;;26.10;14.40;;;8.70;99.90;;;;;;4943466;28;20066;-76
2022/04/01 12:00:14;;;;;;;14.82;5.70;;;8.70;99.90;;;;;;4943082;28;20466;-77
2022/04/01 12:02:42;;;;;;;485.98;257.73;;;8.50;99.90;;;;;;4935902;28;20115;-77
2022/04/01 12:05:08;;;;;;;271.80;169.05;;;8.50;99.90;;;;;;4942602;28;20032;-76
2022/04/01 12:10:29;;;;;;;16.00;9.55;;;8.50;99.90;;;;;;4933032;28;20041;-78
2022/04/01 12:12:58;;;;;;;12.27;6.03;;;8.50;99.90;;;;;;4935711;28;20111;-77
2022/04/01 12:15:37;;;;;;;11.20;7.18;;;8.50;99.90;;;;;;4945588;28;20050;-77
2022/04/01 12:18:11;;;;;;;7.60;4.47;;;8.60;99.90;;;;;;4944052;28;20093;-77
2022/04/01 12:20:45;;;;;;;5.97;3.35;;;8.60;99.90;;;;;;4946940;28;20470;-77
2022/04/01 12:23:12;;;;;;;7.35;3.78;;;8.60;99.90;;;;;;4945342;28;20118;-76
2022/04/01 12:25:40;;;;;;;5.03;2.78;;;8.70;99.90;;;;;;4946426;28;20035;-76
2022/04/01 12:28:08;;;;;;;5.78;3.08;;;8.70;99.90;;;;;;4944991;28;20122;-77
2022/04/01 12:30:44;;;;;;;56.30;33.63;;;8.80;99.90;;;;;;4935022;28;20035;-77
2022/04/01 12:33:17;;;;;;;87.43;51.05;;;8.80;99.90;;;;;;4929558;28;20586;-76
2022/04/01 12:35:52;;;;;;;88.40;52.13;;;8.70;99.90;;;;;;4929491;28;20043;-76
2022/04/01 12:38:18;;;;;;;20.33;14.18;;;8.90;99.90;;;;;;4931771;28;20071;-77
2022/04/01 12:40:44;;;;;;;7.07;5.00;;;8.90;99.90;;;;;;4944651;28;20047;-77
2022/04/01 12:43:43;;;;;;;7.85;4.55;;;8.80;99.90;;;;;;4945394;28;20090;-76
2022/04/01 12:46:12;;;;;;;14.80;11.93;;;8.80;99.90;;;;;;4940752;28;20126;-77
2022/04/01 12:48:46;;;;;;;5.30;2.90;;;8.80;99.90;;;;;;4942161;28;20154;-77
2022/04/01 12:51:27;;;;;;;3.90;2.13;;;8.90;99.90;;;;;;4964288;28;20065;-77
2022/04/01 12:53:57;;;;;;;4.88;1.73;;;8.70;99.90;;;;;;4943839;28;20639;-78
2022/04/01 12:56:25;;;;;;;2.28;0.80;;;8.70;99.90;;;;;;4943136;28;20028;-76
2022/04/01 12:58:57;;;;;;;1.10;0.50;;;8.60;99.90;;;;;;4941614;28;20039;-77
2022/04/01 13:01:31;;;;;;;0.85;0.50;;;8.60;99.90;;;;;;4941293;28;20114;-77
2022/04/01 13:03:57;;;;;;;0.82;0.30;;;8.60;99.90;;;;;;4942847;28;20521;-77
2022/04/01 13:06:28;;;;;;;1.23;0.45;;;8.60;99.90;;;;;;4943679;28;20035;-76
2022/04/01 13:09:11;;;;;;;1.35;0.30;;;8.70;99.90;;;;;;4944544;28;20042;-77
2022/04/01 13:11:46;;;;;;;11.55;10.45;;;8.90;99.90;;;;;;4944090;28;20039;-76